sensor_id;sensor_type;location;lat;lon;timestamp;P1;durP1;ratioP1;P2;durP2;ratioP2
77046;SDS011;65977;56.380;44.022;2023-03-19T00:00:45;3.83;;;2.40;;
77046;SDS011;65977;56.380;44.022;2023-03-19T00:03:12;4.30;;;2.30;;
77046;SDS011;65977;56.380;44.022;2023-03-19T00:05:50;4.50;;;1.95;;
77046;SDS011;65977;56.380;44.022;2023-03-19T00:08:19;4.00;;;2.08;;
77046;SDS011;65977;56.380;44.022;2023-03-19T00:10:47;3.80;;;2.45;;
77046;SDS011;65977;56.380;44.022;2023-03-19T00:13:14;3.83;;;2.03;;
77046;SDS011;65977;56.380;44.022;2023-03-19T00:15:42;6.25;;;2.83;;
77046;SDS011;65977;56.380;44.022;2023-03-19T00:18:09;3.63;;;2.35;;
77046;SDS011;65977;56.380;44.022;2023-03-19T00:20:36;3.10;;;2.20;;
77046;SDS011;65977;56.380;44.022;2023-03-19T00:23:03;3.42;;;1.95;;
77046;SDS011;65977;56.380;44.022;2023-03-19T00:25:30;4.78;;;2.45;;
77046;SDS011;65977;56.380;44.022;2023-03-19T00:27:59;4.30;;;2.00;;
77046;SDS011;65977;56.380;44.022;2023-03-19T00:30:26;2.97;;;2.22;;
77046;SDS011;65977;56.380;44.022;2023-03-19T00:32:53;3.55;;;2.20;;
77046;SDS011;65977;56.380;44.022;2023-03-19T00:35:20;3.45;;;1.90;;
77046;SDS011;65977;56.380;44.022;2023-03-19T00:37:47;4.93;;;2.22;;
77046;SDS011;65977;56.380;44.022;2023-03-19T00:40:14;3.97;;;2.17;;
77046;SDS011;65977;56.380;44.022;2023-03-19T00:42:41;3.83;;;1.83;;
77046;SDS011;65977;56.380;44.022;2023-03-19T00:45:10;2.90;;;1.90;;
77046;SDS011;65977;56.380;44.022;2023-03-19T00:47:38;4.32;;;2.13;;
77046;SDS011;65977;56.380;44.022;2023-03-19T00:50:05;3.75;;;1.85;;
77046;SDS011;65977;56.380;44.022;2023-03-19T00:52:32;4.15;;;1.83;;
77046;SDS011;65977;56.380;44.022;2023-03-19T00:54:59;4.45;;;2.35;;
77046;SDS011;65977;56.380;44.022;2023-03-19T00:57:28;5.20;;;2.50;;
77046;SDS011;65977;56.380;44.022;2023-03-19T00:59:55;5.63;;;2.05;;
77046;SDS011;65977;56.380;44.022;2023-03-19T01:02:24;3.10;;;1.60;;
77046;SDS011;65977;56.380;44.022;2023-03-19T01:04:51;4.53;;;2.25;;
77046;SDS011;65977;56.380;44.022;2023-03-19T01:07:18;3.53;;;1.98;;
77046;SDS011;65977;56.380;44.022;2023-03-19T01:09:45;5.32;;;2.78;;
77046;SDS011;65977;56.380;44.022;2023-03-19T01:12:13;3.10;;;1.88;;
77046;SDS011;65977;56.380;44.022;2023-03-19T01:14:40;4.60;;;2.13;;
77046;SDS011;65977;56.380;44.022;2023-03-19T01:17:07;5.78;;;2.20;;
77046;SDS011;65977;56.380;44.022;2023-03-19T01:19:34;3.80;;;1.83;;
77046;SDS011;65977;56.380;44.022;2023-03-19T01:22:01;4.05;;;2.10;;
77046;SDS011;65977;56.380;44.022;2023-03-19T01:24:30;3.88;;;2.50;;
77046;SDS011;65977;56.380;44.022;2023-03-19T01:26:57;5.75;;;2.85;;
77046;SDS011;65977;56.380;44.022;2023-03-19T01:29:24;5.60;;;3.20;;
77046;SDS011;65977;56.380;44.022;2023-03-19T01:31:52;6.70;;;3.13;;
77046;SDS011;65977;56.380;44.022;2023-03-19T01:34:19;8.90;;;2.95;;
77046;SDS011;65977;56.380;44.022;2023-03-19T01:36:46;4.93;;;3.22;;
77046;SDS011;65977;56.380;44.022;2023-03-19T01:39:14;5.35;;;2.78;;
77046;SDS011;65977;56.380;44.022;2023-03-19T01:41:41;4.20;;;2.65;;
77046;SDS011;65977;56.380;44.022;2023-03-19T01:47:15;5.05;;;2.63;;
77046;SDS011;65977;56.380;44.022;2023-03-19T01:49:58;3.90;;;2.60;;
77046;SDS011;65977;56.380;44.022;2023-03-19T01:52:28;4.00;;;2.53;;
77046;SDS011;65977;56.380;44.022;2023-03-19T01:54:58;4.25;;;2.38;;
77046;SDS011;65977;56.380;44.022;2023-03-19T01:57:28;4.90;;;2.45;;
77046;SDS011;65977;56.380;44.022;2023-03-19T01:59:59;5.15;;;3.72;;
77046;SDS011;65977;56.380;44.022;2023-03-19T02:02:33;6.28;;;3.92;;
77046;SDS011;65977;56.380;44.022;2023-03-19T02:07:38;4.65;;;3.15;;
77046;SDS011;65977;56.380;44.022;2023-03-19T02:10:10;3.10;;;2.20;;
77046;SDS011;65977;56.380;44.022;2023-03-19T02:12:40;5.10;;;2.08;;
77046;SDS011;65977;56.380;44.022;2023-03-19T02:15:07;3.70;;;2.63;;
77046;SDS011;65977;56.380;44.022;2023-03-19T02:17:55;2.90;;;2.42;;
77046;SDS011;65977;56.380;44.022;2023-03-19T02:23:20;4.38;;;2.55;;
77046;SDS011;65977;56.380;44.022;2023-03-19T02:28:20;3.80;;;2.22;;
77046;SDS011;65977;56.380;44.022;2023-03-19T02:30:49;3.88;;;2.38;;
77046;SDS011;65977;56.380;44.022;2023-03-19T02:33:17;4.55;;;2.28;;
77046;SDS011;65977;56.380;44.022;2023-03-19T02:35:45;3.90;;;2.20;;
77046;SDS011;65977;56.380;44.022;2023-03-19T02:38:14;4.53;;;2.45;;
77046;SDS011;65977;56.380;44.022;2023-03-19T02:40:49;3.35;;;2.25;;
77046;SDS011;65977;56.380;44.022;2023-03-19T02:43:18;6.03;;;2.13;;
77046;SDS011;65977;56.380;44.022;2023-03-19T02:45:47;7.80;;;2.40;;
77046;SDS011;65977;56.380;44.022;2023-03-19T02:48:14;2.88;;;2.17;;
77046;SDS011;65977;56.380;44.022;2023-03-19T02:50:41;4.05;;;2.10;;
77046;SDS011;65977;56.380;44.022;2023-03-19T02:53:08;3.65;;;2.33;;
77046;SDS011;65977;56.380;44.022;2023-03-19T02:55:35;2.95;;;2.15;;
77046;SDS011;65977;56.380;44.022;2023-03-19T02:58:02;5.00;;;2.20;;
77046;SDS011;65977;56.380;44.022;2023-03-19T03:00:29;3.72;;;2.30;;
77046;SDS011;65977;56.380;44.022;2023-03-19T03:02:57;3.90;;;2.50;;
77046;SDS011;65977;56.380;44.022;2023-03-19T03:05:24;4.63;;;2.80;;
77046;SDS011;65977;56.380;44.022;2023-03-19T03:07:51;4.13;;;2.60;;
77046;SDS011;65977;56.380;44.022;2023-03-19T03:10:19;4.03;;;2.25;;
77046;SDS011;65977;56.380;44.022;2023-03-19T03:12:46;4.65;;;2.72;;
77046;SDS011;65977;56.380;44.022;2023-03-19T03:15:13;4.13;;;2.25;;
77046;SDS011;65977;56.380;44.022;2023-03-19T03:17:41;3.42;;;2.15;;
77046;SDS011;65977;56.380;44.022;2023-03-19T03:20:09;3.80;;;2.33;;
77046;SDS011;65977;56.380;44.022;2023-03-19T03:22:39;3.30;;;2.20;;
77046;SDS011;65977;56.380;44.022;2023-03-19T03:25:06;4.50;;;2.47;;
77046;SDS011;65977;56.380;44.022;2023-03-19T03:27:35;3.33;;;1.88;;
77046;SDS011;65977;56.380;44.022;2023-03-19T03:30:04;3.17;;;2.15;;
77046;SDS011;65977;56.380;44.022;2023-03-19T03:32:34;2.88;;;1.77;;
77046;SDS011;65977;56.380;44.022;2023-03-19T03:35:02;4.43;;;2.17;;
77046;SDS011;65977;56.380;44.022;2023-03-19T03:37:31;3.88;;;2.10;;
77046;SDS011;65977;56.380;44.022;2023-03-19T03:39:58;2.70;;;1.73;;
77046;SDS011;65977;56.380;44.022;2023-03-19T03:42:25;4.20;;;2.60;;
77046;SDS011;65977;56.380;44.022;2023-03-19T03:44:52;3.80;;;2.60;;
77046;SDS011;65977;56.380;44.022;2023-03-19T03:47:19;3.63;;;1.80;;
77046;SDS011;65977;56.380;44.022;2023-03-19T03:49:46;3.33;;;2.17;;
77046;SDS011;65977;56.380;44.022;2023-03-19T03:52:14;2.70;;;2.00;;
77046;SDS011;65977;56.380;44.022;2023-03-19T03:54:41;3.22;;;2.03;;
77046;SDS011;65977;56.380;44.022;2023-03-19T03:57:08;3.85;;;2.45;;
77046;SDS011;65977;56.380;44.022;2023-03-19T03:59:35;3.80;;;2.10;;
77046;SDS011;65977;56.380;44.022;2023-03-19T04:02:02;4.90;;;2.42;;
77046;SDS011;65977;56.380;44.022;2023-03-19T04:04:29;4.63;;;2.13;;
77046;SDS011;65977;56.380;44.022;2023-03-19T04:06:56;4.63;;;2.00;;
77046;SDS011;65977;56.380;44.022;2023-03-19T04:09:23;3.10;;;2.15;;
77046;SDS011;65977;56.380;44.022;2023-03-19T04:11:51;4.28;;;2.08;;
77046;SDS011;65977;56.380;44.022;2023-03-19T04:14:19;2.88;;;2.35;;
77046;SDS011;65977;56.380;44.022;2023-03-19T04:16:46;5.35;;;2.63;;
77046;SDS011;65977;56.380;44.022;2023-03-19T04:19:13;3.67;;;2.20;;
77046;SDS011;65977;56.380;44.022;2023-03-19T04:21:40;3.30;;;2.03;;
77046;SDS011;65977;56.380;44.022;2023-03-19T04:24:07;3.00;;;2.15;;
77046;SDS011;65977;56.380;44.022;2023-03-19T04:26:36;3.22;;;2.03;;
77046;SDS011;65977;56.380;44.022;2023-03-19T04:29:03;3.15;;;2.15;;
77046;SDS011;65977;56.380;44.022;2023-03-19T04:31:32;4.13;;;2.53;;
77046;SDS011;65977;56.380;44.022;2023-03-19T04:34:00;4.28;;;2.40;;
77046;SDS011;65977;56.380;44.022;2023-03-19T04:36:27;4.55;;;2.28;;
77046;SDS011;65977;56.380;44.022;2023-03-19T04:38:54;3.20;;;2.40;;
77046;SDS011;65977;56.380;44.022;2023-03-19T04:41:22;5.20;;;2.67;;
77046;SDS011;65977;56.380;44.022;2023-03-19T04:43:49;3.47;;;2.30;;
77046;SDS011;65977;56.380;44.022;2023-03-19T04:46:16;6.10;;;2.70;;
77046;SDS011;65977;56.380;44.022;2023-03-19T04:48:43;4.88;;;2.95;;
77046;SDS011;65977;56.380;44.022;2023-03-19T04:51:10;4.93;;;2.83;;
77046;SDS011;65977;56.380;44.022;2023-03-19T04:53:38;5.90;;;3.55;;
77046;SDS011;65977;56.380;44.022;2023-03-19T04:56:05;6.07;;;3.13;;
77046;SDS011;65977;56.380;44.022;2023-03-19T04:58:33;5.25;;;3.58;;
77046;SDS011;65977;56.380;44.022;2023-03-19T05:01:00;4.38;;;2.90;;
77046;SDS011;65977;56.380;44.022;2023-03-19T05:03:27;4.25;;;2.85;;
77046;SDS011;65977;56.380;44.022;2023-03-19T05:05:54;4.55;;;3.17;;
77046;SDS011;65977;56.380;44.022;2023-03-19T05:08:21;5.85;;;3.70;;
77046;SDS011;65977;56.380;44.022;2023-03-19T05:10:48;5.00;;;3.65;;
77046;SDS011;65977;56.380;44.022;2023-03-19T05:13:15;5.15;;;2.70;;
77046;SDS011;65977;56.380;44.022;2023-03-19T05:15:46;5.07;;;3.53;;
77046;SDS011;65977;56.380;44.022;2023-03-19T05:18:14;5.82;;;3.92;;
77046;SDS011;65977;56.380;44.022;2023-03-19T05:20:42;5.85;;;3.25;;
77046;SDS011;65977;56.380;44.022;2023-03-19T05:23:09;5.28;;;3.17;;
77046;SDS011;65977;56.380;44.022;2023-03-19T05:25:37;4.22;;;2.60;;
77046;SDS011;65977;56.380;44.022;2023-03-19T05:28:04;3.85;;;2.22;;
77046;SDS011;65977;56.380;44.022;2023-03-19T05:30:31;4.28;;;3.00;;
77046;SDS011;65977;56.380;44.022;2023-03-19T05:32:59;5.35;;;3.22;;
77046;SDS011;65977;56.380;44.022;2023-03-19T05:35:27;4.18;;;3.05;;
77046;SDS011;65977;56.380;44.022;2023-03-19T05:37:55;4.40;;;2.53;;
77046;SDS011;65977;56.380;44.022;2023-03-19T05:40:22;4.18;;;2.55;;
77046;SDS011;65977;56.380;44.022;2023-03-19T05:42:49;3.72;;;2.55;;
77046;SDS011;65977;56.380;44.022;2023-03-19T05:45:16;4.05;;;2.63;;
77046;SDS011;65977;56.380;44.022;2023-03-19T05:47:45;4.43;;;2.95;;
77046;SDS011;65977;56.380;44.022;2023-03-19T05:50:15;4.18;;;3.08;;
77046;SDS011;65977;56.380;44.022;2023-03-19T05:52:43;4.03;;;3.20;;
77046;SDS011;65977;56.380;44.022;2023-03-19T05:55:10;3.30;;;2.50;;
77046;SDS011;65977;56.380;44.022;2023-03-19T05:57:38;4.15;;;2.67;;
77046;SDS011;65977;56.380;44.022;2023-03-19T06:00:05;4.00;;;2.53;;
77046;SDS011;65977;56.380;44.022;2023-03-19T06:02:33;4.22;;;2.53;;
77046;SDS011;65977;56.380;44.022;2023-03-19T06:05:06;6.00;;;3.20;;
77046;SDS011;65977;56.380;44.022;2023-03-19T06:07:34;5.28;;;3.13;;
77046;SDS011;65977;56.380;44.022;2023-03-19T06:10:01;3.90;;;2.42;;
77046;SDS011;65977;56.380;44.022;2023-03-19T06:12:29;3.55;;;2.38;;
77046;SDS011;65977;56.380;44.022;2023-03-19T06:14:56;3.50;;;2.50;;
77046;SDS011;65977;56.380;44.022;2023-03-19T06:17:23;4.82;;;3.13;;
77046;SDS011;65977;56.380;44.022;2023-03-19T06:19:51;4.18;;;2.90;;
77046;SDS011;65977;56.380;44.022;2023-03-19T06:22:18;4.13;;;3.10;;
77046;SDS011;65977;56.380;44.022;2023-03-19T06:24:45;5.25;;;3.03;;
77046;SDS011;65977;56.380;44.022;2023-03-19T06:27:12;5.30;;;2.70;;
77046;SDS011;65977;56.380;44.022;2023-03-19T06:29:39;4.80;;;2.63;;
77046;SDS011;65977;56.380;44.022;2023-03-19T06:32:06;4.57;;;2.80;;
77046;SDS011;65977;56.380;44.022;2023-03-19T06:34:33;3.83;;;2.88;;
77046;SDS011;65977;56.380;44.022;2023-03-19T06:37:01;4.35;;;2.83;;
77046;SDS011;65977;56.380;44.022;2023-03-19T06:39:28;4.05;;;2.90;;
77046;SDS011;65977;56.380;44.022;2023-03-19T06:41:55;4.57;;;2.65;;
77046;SDS011;65977;56.380;44.022;2023-03-19T06:44:22;3.67;;;2.63;;
77046;SDS011;65977;56.380;44.022;2023-03-19T06:46:50;5.20;;;2.53;;
77046;SDS011;65977;56.380;44.022;2023-03-19T06:49:17;7.63;;;2.88;;
77046;SDS011;65977;56.380;44.022;2023-03-19T06:51:44;3.92;;;3.38;;
77046;SDS011;65977;56.380;44.022;2023-03-19T06:54:12;3.65;;;2.33;;
77046;SDS011;65977;56.380;44.022;2023-03-19T06:56:39;5.53;;;2.50;;
77046;SDS011;65977;56.380;44.022;2023-03-19T06:59:06;6.22;;;3.15;;
77046;SDS011;65977;56.380;44.022;2023-03-19T07:02:46;4.22;;;3.47;;
77046;SDS011;65977;56.380;44.022;2023-03-19T07:05:14;5.18;;;3.35;;
77046;SDS011;65977;56.380;44.022;2023-03-19T07:08:02;4.22;;;3.35;;
77046;SDS011;65977;56.380;44.022;2023-03-19T07:10:29;4.07;;;3.50;;
77046;SDS011;65977;56.380;44.022;2023-03-19T07:12:56;4.50;;;3.50;;
77046;SDS011;65977;56.380;44.022;2023-03-19T07:15:23;4.32;;;3.17;;
77046;SDS011;65977;56.380;44.022;2023-03-19T07:17:51;4.38;;;3.30;;
77046;SDS011;65977;56.380;44.022;2023-03-19T07:20:18;3.92;;;2.83;;
77046;SDS011;65977;56.380;44.022;2023-03-19T07:22:45;4.50;;;3.72;;
77046;SDS011;65977;56.380;44.022;2023-03-19T07:25:12;3.30;;;2.70;;
77046;SDS011;65977;56.380;44.022;2023-03-19T07:27:39;2.70;;;1.80;;
77046;SDS011;65977;56.380;44.022;2023-03-19T07:30:07;17.60;;;3.40;;
77046;SDS011;65977;56.380;44.022;2023-03-19T07:32:35;4.28;;;3.05;;
77046;SDS011;65977;56.380;44.022;2023-03-19T07:35:02;3.78;;;3.38;;
77046;SDS011;65977;56.380;44.022;2023-03-19T07:37:31;3.35;;;2.40;;
77046;SDS011;65977;56.380;44.022;2023-03-19T07:39:58;5.90;;;2.72;;
77046;SDS011;65977;56.380;44.022;2023-03-19T07:42:26;4.72;;;3.60;;
77046;SDS011;65977;56.380;44.022;2023-03-19T07:44:53;4.10;;;2.75;;
77046;SDS011;65977;56.380;44.022;2023-03-19T07:47:20;4.40;;;3.17;;
77046;SDS011;65977;56.380;44.022;2023-03-19T07:49:54;5.18;;;2.78;;
77046;SDS011;65977;56.380;44.022;2023-03-19T07:52:23;4.40;;;2.58;;
77046;SDS011;65977;56.380;44.022;2023-03-19T07:54:51;3.88;;;3.45;;
77046;SDS011;65977;56.380;44.022;2023-03-19T07:57:20;3.50;;;3.20;;
77046;SDS011;65977;56.380;44.022;2023-03-19T07:59:47;3.53;;;2.63;;
77046;SDS011;65977;56.380;44.022;2023-03-19T08:02:14;3.25;;;2.80;;
77046;SDS011;65977;56.380;44.022;2023-03-19T08:04:42;3.60;;;2.50;;
77046;SDS011;65977;56.380;44.022;2023-03-19T08:07:09;7.32;;;3.45;;
77046;SDS011;65977;56.380;44.022;2023-03-19T08:09:38;3.75;;;3.15;;
77046;SDS011;65977;56.380;44.022;2023-03-19T08:12:06;3.83;;;2.47;;
77046;SDS011;65977;56.380;44.022;2023-03-19T08:14:33;3.00;;;1.95;;
77046;SDS011;65977;56.380;44.022;2023-03-19T08:17:01;3.80;;;2.22;;
77046;SDS011;65977;56.380;44.022;2023-03-19T08:19:28;3.17;;;2.58;;
77046;SDS011;65977;56.380;44.022;2023-03-19T08:21:55;5.03;;;3.08;;
77046;SDS011;65977;56.380;44.022;2023-03-19T08:24:22;3.53;;;2.88;;
77046;SDS011;65977;56.380;44.022;2023-03-19T08:26:49;3.53;;;2.42;;
77046;SDS011;65977;56.380;44.022;2023-03-19T08:29:16;3.35;;;2.03;;
77046;SDS011;65977;56.380;44.022;2023-03-19T08:31:44;4.25;;;2.80;;
77046;SDS011;65977;56.380;44.022;2023-03-19T08:34:11;3.33;;;2.38;;
77046;SDS011;65977;56.380;44.022;2023-03-19T08:36:39;3.28;;;2.53;;
77046;SDS011;65977;56.380;44.022;2023-03-19T08:39:06;4.50;;;2.80;;
77046;SDS011;65977;56.380;44.022;2023-03-19T08:41:33;3.33;;;2.60;;
77046;SDS011;65977;56.380;44.022;2023-03-19T08:44:00;3.63;;;2.38;;
77046;SDS011;65977;56.380;44.022;2023-03-19T08:46:29;3.47;;;2.80;;
77046;SDS011;65977;56.380;44.022;2023-03-19T08:48:56;3.22;;;2.40;;
77046;SDS011;65977;56.380;44.022;2023-03-19T08:51:23;3.33;;;2.40;;
77046;SDS011;65977;56.380;44.022;2023-03-19T08:53:52;2.83;;;2.30;;
77046;SDS011;65977;56.380;44.022;2023-03-19T08:56:19;9.55;;;2.22;;
77046;SDS011;65977;56.380;44.022;2023-03-19T08:58:46;3.53;;;2.58;;
77046;SDS011;65977;56.380;44.022;2023-03-19T09:01:14;4.35;;;2.40;;
77046;SDS011;65977;56.380;44.022;2023-03-19T09:03:41;4.78;;;2.30;;
77046;SDS011;65977;56.380;44.022;2023-03-19T09:06:10;3.95;;;2.58;;
77046;SDS011;65977;56.380;44.022;2023-03-19T09:08:38;4.45;;;2.60;;
77046;SDS011;65977;56.380;44.022;2023-03-19T09:11:05;4.50;;;2.25;;
77046;SDS011;65977;56.380;44.022;2023-03-19T09:13:33;2.85;;;2.05;;
77046;SDS011;65977;56.380;44.022;2023-03-19T09:16:01;3.30;;;1.95;;
77046;SDS011;65977;56.380;44.022;2023-03-19T09:18:28;4.57;;;2.13;;
77046;SDS011;65977;56.380;44.022;2023-03-19T09:20:55;3.13;;;1.90;;
77046;SDS011;65977;56.380;44.022;2023-03-19T09:23:22;3.78;;;2.58;;
77046;SDS011;65977;56.380;44.022;2023-03-19T09:25:49;4.65;;;2.17;;
77046;SDS011;65977;56.380;44.022;2023-03-19T09:28:17;3.05;;;1.90;;
77046;SDS011;65977;56.380;44.022;2023-03-19T09:30:45;3.00;;;2.20;;
77046;SDS011;65977;56.380;44.022;2023-03-19T09:33:13;3.45;;;2.20;;
77046;SDS011;65977;56.380;44.022;2023-03-19T09:35:42;2.67;;;1.80;;
77046;SDS011;65977;56.380;44.022;2023-03-19T09:38:09;2.58;;;1.40;;
77046;SDS011;65977;56.380;44.022;2023-03-19T09:40:37;2.97;;;1.55;;
77046;SDS011;65977;56.380;44.022;2023-03-19T09:46:13;2.42;;;1.85;;
77046;SDS011;65977;56.380;44.022;2023-03-19T09:48:53;2.20;;;1.52;;
77046;SDS011;65977;56.380;44.022;2023-03-19T09:51:28;3.20;;;1.77;;
77046;SDS011;65977;56.380;44.022;2023-03-19T09:54:12;2.63;;;2.25;;
77046;SDS011;65977;56.380;44.022;2023-03-19T09:56:51;2.97;;;2.10;;
77046;SDS011;65977;56.380;44.022;2023-03-19T09:59:22;5.10;;;1.77;;
77046;SDS011;65977;56.380;44.022;2023-03-19T10:01:57;2.55;;;1.85;;
77046;SDS011;65977;56.380;44.022;2023-03-19T10:07:11;3.35;;;1.85;;
77046;SDS011;65977;56.380;44.022;2023-03-19T10:09:53;4.00;;;2.35;;
77046;SDS011;65977;56.380;44.022;2023-03-19T10:15:27;3.78;;;1.67;;
77046;SDS011;65977;56.380;44.022;2023-03-19T10:20:46;2.40;;;1.80;;
77046;SDS011;65977;56.380;44.022;2023-03-19T10:23:33;2.72;;;1.85;;
77046;SDS011;65977;56.380;44.022;2023-03-19T10:26:12;2.67;;;1.98;;
77046;SDS011;65977;56.380;44.022;2023-03-19T10:28:43;3.17;;;1.90;;
77046;SDS011;65977;56.380;44.022;2023-03-19T10:37:00;3.85;;;1.80;;
77046;SDS011;65977;56.380;44.022;2023-03-19T10:39:35;2.50;;;1.65;;
77046;SDS011;65977;56.380;44.022;2023-03-19T10:42:06;3.63;;;2.25;;
77046;SDS011;65977;56.380;44.022;2023-03-19T10:47:40;3.28;;;2.28;;
77046;SDS011;65977;56.380;44.022;2023-03-19T10:50:16;3.03;;;2.13;;
77046;SDS011;65977;56.380;44.022;2023-03-19T10:52:57;2.65;;;1.80;;
77046;SDS011;65977;56.380;44.022;2023-03-19T10:55:49;4.35;;;2.10;;
77046;SDS011;65977;56.380;44.022;2023-03-19T10:58:22;2.83;;;1.90;;
77046;SDS011;65977;56.380;44.022;2023-03-19T11:00:56;2.80;;;2.22;;
77046;SDS011;65977;56.380;44.022;2023-03-19T11:03:35;3.72;;;2.30;;
77046;SDS011;65977;56.380;44.022;2023-03-19T11:09:11;3.33;;;1.90;;
77046;SDS011;65977;56.380;44.022;2023-03-19T11:19:32;2.45;;;1.83;;
77046;SDS011;65977;56.380;44.022;2023-03-19T11:24:38;2.42;;;1.90;;
77046;SDS011;65977;56.380;44.022;2023-03-19T11:27:07;2.58;;;1.67;;
77046;SDS011;65977;56.380;44.022;2023-03-19T11:29:36;3.13;;;2.10;;
77046;SDS011;65977;56.380;44.022;2023-03-19T11:34:57;2.50;;;1.90;;
77046;SDS011;65977;56.380;44.022;2023-03-19T11:43:24;3.60;;;1.77;;
77046;SDS011;65977;56.380;44.022;2023-03-19T11:57:01;3.10;;;1.88;;
77046;SDS011;65977;56.380;44.022;2023-03-19T12:02:55;3.00;;;2.10;;
77046;SDS011;65977;56.380;44.022;2023-03-19T12:05:51;3.20;;;2.13;;
77046;SDS011;65977;56.380;44.022;2023-03-19T12:08:38;3.03;;;1.95;;
77046;SDS011;65977;56.380;44.022;2023-03-19T12:11:48;2.45;;;1.92;;
77046;SDS011;65977;56.380;44.022;2023-03-19T12:22:47;3.05;;;2.75;;
77046;SDS011;65977;56.380;44.022;2023-03-19T12:25:41;5.90;;;2.25;;
77046;SDS011;65977;56.380;44.022;2023-03-19T12:28:28;3.50;;;2.58;;
77046;SDS011;65977;56.380;44.022;2023-03-19T12:36:31;3.92;;;2.45;;
77046;SDS011;65977;56.380;44.022;2023-03-19T12:39:09;4.10;;;2.38;;
77046;SDS011;65977;56.380;44.022;2023-03-19T12:41:40;3.92;;;2.70;;
77046;SDS011;65977;56.380;44.022;2023-03-19T12:44:11;3.50;;;2.47;;
77046;SDS011;65977;56.380;44.022;2023-03-19T12:49:25;2.90;;;2.40;;
77046;SDS011;65977;56.380;44.022;2023-03-19T12:52:17;5.10;;;2.83;;
77046;SDS011;65977;56.380;44.022;2023-03-19T12:54:58;4.35;;;3.08;;
77046;SDS011;65977;56.380;44.022;2023-03-19T12:57:59;4.57;;;2.33;;
77046;SDS011;65977;56.380;44.022;2023-03-19T13:03:52;2.70;;;1.90;;
77046;SDS011;65977;56.380;44.022;2023-03-19T13:23:18;4.10;;;2.85;;
77046;SDS011;65977;56.380;44.022;2023-03-19T13:25:50;2.97;;;2.47;;
77046;SDS011;65977;56.380;44.022;2023-03-19T13:28:33;4.85;;;2.70;;
77046;SDS011;65977;56.380;44.022;2023-03-19T13:31:22;3.40;;;2.45;;
77046;SDS011;65977;56.380;44.022;2023-03-19T13:34:04;4.00;;;2.58;;
77046;SDS011;65977;56.380;44.022;2023-03-19T13:36:40;4.20;;;2.38;;
77046;SDS011;65977;56.380;44.022;2023-03-19T13:39:12;4.90;;;2.53;;
77046;SDS011;65977;56.380;44.022;2023-03-19T13:41:51;4.22;;;3.17;;
77046;SDS011;65977;56.380;44.022;2023-03-19T13:47:01;3.58;;;2.55;;
77046;SDS011;65977;56.380;44.022;2023-03-19T13:50:00;3.90;;;2.88;;
77046;SDS011;65977;56.380;44.022;2023-03-19T13:52:50;4.78;;;2.97;;
77046;SDS011;65977;56.380;44.022;2023-03-19T13:57:54;2.97;;;2.15;;
77046;SDS011;65977;56.380;44.022;2023-03-19T14:03:18;5.05;;;2.78;;
77046;SDS011;65977;56.380;44.022;2023-03-19T14:05:50;3.65;;;2.45;;
77046;SDS011;65977;56.380;44.022;2023-03-19T14:08:26;3.00;;;2.17;;
77046;SDS011;65977;56.380;44.022;2023-03-19T14:10:57;5.50;;;3.35;;
77046;SDS011;65977;56.380;44.022;2023-03-19T14:13:28;4.22;;;2.75;;
77046;SDS011;65977;56.380;44.022;2023-03-19T14:16:06;4.40;;;2.97;;
77046;SDS011;65977;56.380;44.022;2023-03-19T14:18:45;3.15;;;2.63;;
77046;SDS011;65977;56.380;44.022;2023-03-19T14:21:15;3.28;;;2.38;;
77046;SDS011;65977;56.380;44.022;2023-03-19T14:23:51;5.45;;;3.53;;
77046;SDS011;65977;56.380;44.022;2023-03-19T14:26:22;4.10;;;2.72;;
77046;SDS011;65977;56.380;44.022;2023-03-19T14:34:19;6.75;;;3.15;;
77046;SDS011;65977;56.380;44.022;2023-03-19T14:36:57;3.92;;;3.25;;
77046;SDS011;65977;56.380;44.022;2023-03-19T14:39:32;3.75;;;3.15;;
77046;SDS011;65977;56.380;44.022;2023-03-19T14:50:47;4.20;;;3.20;;
77046;SDS011;65977;56.380;44.022;2023-03-19T14:56:30;3.47;;;2.88;;
77046;SDS011;65977;56.380;44.022;2023-03-19T14:58:59;3.85;;;2.75;;
77046;SDS011;65977;56.380;44.022;2023-03-19T15:01:32;4.40;;;2.75;;
77046;SDS011;65977;56.380;44.022;2023-03-19T15:04:09;4.63;;;3.00;;
77046;SDS011;65977;56.380;44.022;2023-03-19T15:06:39;5.65;;;2.97;;
77046;SDS011;65977;56.380;44.022;2023-03-19T15:09:17;4.70;;;3.15;;
77046;SDS011;65977;56.380;44.022;2023-03-19T15:15:00;4.68;;;2.67;;
77046;SDS011;65977;56.380;44.022;2023-03-19T15:17:38;4.10;;;2.63;;
77046;SDS011;65977;56.380;44.022;2023-03-19T15:20:14;4.20;;;2.97;;
77046;SDS011;65977;56.380;44.022;2023-03-19T15:22:52;4.97;;;2.85;;
77046;SDS011;65977;56.380;44.022;2023-03-19T15:25:21;5.07;;;2.83;;
77046;SDS011;65977;56.380;44.022;2023-03-19T15:30:35;4.90;;;2.78;;
77046;SDS011;65977;56.380;44.022;2023-03-19T15:33:20;5.55;;;3.08;;
77046;SDS011;65977;56.380;44.022;2023-03-19T15:39:01;5.10;;;2.70;;
77046;SDS011;65977;56.380;44.022;2023-03-19T15:41:31;3.03;;;2.30;;
77046;SDS011;65977;56.380;44.022;2023-03-19T15:44:03;4.97;;;3.15;;
77046;SDS011;65977;56.380;44.022;2023-03-19T15:46:33;6.00;;;3.13;;
77046;SDS011;65977;56.380;44.022;2023-03-19T15:51:39;4.30;;;3.42;;
77046;SDS011;65977;56.380;44.022;2023-03-19T15:54:08;3.22;;;2.45;;
77046;SDS011;65977;56.380;44.022;2023-03-19T15:56:36;3.60;;;2.72;;
77046;SDS011;65977;56.380;44.022;2023-03-19T15:59:03;3.20;;;2.20;;
77046;SDS011;65977;56.380;44.022;2023-03-19T16:01:31;5.45;;;3.47;;
77046;SDS011;65977;56.380;44.022;2023-03-19T16:04:00;4.13;;;2.67;;
77046;SDS011;65977;56.380;44.022;2023-03-19T16:06:32;5.30;;;2.72;;
77046;SDS011;65977;56.380;44.022;2023-03-19T16:09:10;4.47;;;2.72;;
77046;SDS011;65977;56.380;44.022;2023-03-19T16:11:41;3.25;;;2.60;;
77046;SDS011;65977;56.380;44.022;2023-03-19T16:16:45;4.13;;;2.80;;
77046;SDS011;65977;56.380;44.022;2023-03-19T16:24:47;4.68;;;2.95;;
77046;SDS011;65977;56.380;44.022;2023-03-19T16:27:20;6.03;;;3.35;;
77046;SDS011;65977;56.380;44.022;2023-03-19T16:29:58;3.70;;;3.13;;
77046;SDS011;65977;56.380;44.022;2023-03-19T16:32:29;8.52;;;3.28;;
77046;SDS011;65977;56.380;44.022;2023-03-19T16:35:05;5.90;;;3.17;;
77046;SDS011;65977;56.380;44.022;2023-03-19T16:37:41;4.97;;;3.42;;
77046;SDS011;65977;56.380;44.022;2023-03-19T16:47:41;4.03;;;3.35;;
77046;SDS011;65977;56.380;44.022;2023-03-19T16:50:15;4.82;;;4.18;;
77046;SDS011;65977;56.380;44.022;2023-03-19T16:52:44;5.28;;;3.50;;
77046;SDS011;65977;56.380;44.022;2023-03-19T16:55:18;3.85;;;2.58;;
77046;SDS011;65977;56.380;44.022;2023-03-19T16:57:58;6.22;;;3.28;;
77046;SDS011;65977;56.380;44.022;2023-03-19T17:00:29;4.45;;;2.95;;
77046;SDS011;65977;56.380;44.022;2023-03-19T17:02:58;4.38;;;3.28;;
77046;SDS011;65977;56.380;44.022;2023-03-19T17:05:26;4.90;;;3.67;;
77046;SDS011;65977;56.380;44.022;2023-03-19T17:07:54;6.97;;;3.28;;
77046;SDS011;65977;56.380;44.022;2023-03-19T17:10:23;5.28;;;3.03;;
77046;SDS011;65977;56.380;44.022;2023-03-19T17:12:53;4.25;;;3.25;;
77046;SDS011;65977;56.380;44.022;2023-03-19T17:15:23;8.00;;;3.25;;
77046;SDS011;65977;56.380;44.022;2023-03-19T17:18:02;4.68;;;2.90;;
77046;SDS011;65977;56.380;44.022;2023-03-19T17:20:40;5.65;;;3.55;;
77046;SDS011;65977;56.380;44.022;2023-03-19T17:23:15;5.05;;;3.75;;
77046;SDS011;65977;56.380;44.022;2023-03-19T17:25:43;5.55;;;3.45;;
77046;SDS011;65977;56.380;44.022;2023-03-19T17:28:11;4.68;;;3.90;;
77046;SDS011;65977;56.380;44.022;2023-03-19T17:30:40;5.85;;;3.63;;